createdAt,value
2023-04-23T00:00:13.215Z,100850.06
2023-04-23T00:02:40.177Z,100843.03
2023-04-23T00:05:07.457Z,100836.00
2023-04-23T00:07:34.724Z,100836.00
2023-04-23T00:10:05.564Z,100836.97
2023-04-23T00:12:32.540Z,100833.59
2023-04-23T00:15:00.429Z,100825.69
2023-04-23T00:17:27.549Z,100825.69
2023-04-23T00:19:54.375Z,100821.50
2023-04-23T00:22:22.019Z,100823.19
2023-04-23T00:24:48.579Z,100827.00
2023-04-23T00:27:15.208Z,100824.31
2023-04-23T00:29:43.225Z,100827.16
2023-04-23T00:32:09.829Z,100819.97
2023-04-23T00:34:36.456Z,100821.97
2023-04-23T00:37:06.675Z,100814.75
2023-04-23T00:39:33.285Z,100814.91
2023-04-23T00:42:06.969Z,100822.09
2023-04-23T00:44:33.420Z,100810.69
2023-04-23T00:47:00.712Z,100804.03
2023-04-23T00:49:28.134Z,100799.81
2023-04-23T00:51:54.770Z,100797.28
2023-04-23T00:54:22.091Z,100797.28
2023-04-23T00:56:49.602Z,100794.63
2023-04-23T00:59:16.155Z,100783.06
2023-04-23T01:01:45.461Z,100783.88
2023-04-23T01:04:17.615Z,100780.38
2023-04-23T01:06:47.077Z,100786.56
2023-04-23T01:09:15.779Z,100774.13
2023-04-23T01:11:43.434Z,100778.53
2023-04-23T01:14:11.437Z,100773.31
2023-04-23T01:16:38.661Z,100767.94
2023-04-23T01:19:10.159Z,100773.31
2023-04-23T01:21:41.115Z,100767.94
2023-04-23T01:24:08.804Z,100765.44
2023-04-23T01:26:35.606Z,100764.41
2023-04-23T01:29:02.576Z,100770.78
2023-04-23T01:31:30.645Z,100760.06
2023-04-23T01:33:58.727Z,100758.38
2023-04-23T01:36:25.420Z,100750.34
2023-04-23T01:38:53.153Z,100750.34
2023-04-23T01:41:22.699Z,100743.97
2023-04-23T01:43:49.504Z,100742.44
2023-04-23T01:46:16.358Z,100745.97
2023-04-23T01:48:43.090Z,100743.28
2023-04-23T01:51:09.607Z,100755.00
2023-04-23T01:53:36.172Z,100740.59
2023-04-23T01:56:03.712Z,100739.75
2023-04-23T01:58:30.241Z,100744.41
2023-04-23T02:00:57.116Z,100735.53
2023-04-23T02:03:23.839Z,100735.53
2023-04-23T02:05:50.915Z,100732.84
2023-04-23T02:08:17.554Z,100727.63
2023-04-23T02:10:44.175Z,100728.47
2023-04-23T02:13:10.789Z,100719.75
2023-04-23T02:15:38.222Z,100715.22
2023-04-23T02:18:04.918Z,100714.38
2023-04-23T02:20:31.575Z,100711.72
2023-04-23T02:22:58.173Z,100711.00
2023-04-23T02:25:24.651Z,100720.75
2023-04-23T02:27:51.210Z,100719.91
2023-04-23T02:30:17.777Z,100708.31
2023-04-23T02:32:44.467Z,100705.66
2023-04-23T02:35:11.068Z,100704.81
2023-04-23T02:37:37.658Z,100711.00
2023-04-23T02:40:08.132Z,100705.81
2023-04-23T02:42:34.801Z,100708.50
2023-04-23T02:45:01.457Z,100713.00
2023-04-23T02:47:28.011Z,100712.19
2023-04-23T02:49:54.574Z,100706.94
2023-04-23T02:52:21.379Z,100708.78
2023-04-23T02:54:48.363Z,100711.47
2023-04-23T02:57:16.409Z,100711.47
2023-04-23T02:59:43.446Z,100709.78
2023-04-23T03:02:10.146Z,100710.94
2023-04-23T03:04:36.867Z,100702.91
2023-04-23T03:07:03.428Z,100711.94
2023-04-23T03:09:30.132Z,100710.25
2023-04-23T03:11:57.694Z,100711.28
2023-04-23T03:14:24.288Z,100712.09
2023-04-23T03:16:50.847Z,100708.59
2023-04-23T03:19:17.461Z,100716.75
2023-04-23T03:21:43.962Z,100708.72
2023-04-23T03:24:13.506Z,100706.22
2023-04-23T03:26:40.002Z,100713.25
2023-04-23T03:29:06.904Z,100706.22
2023-04-23T03:31:33.630Z,100698.31
2023-04-23T03:34:00.395Z,100705.50
2023-04-23T03:36:26.928Z,100700.97
2023-04-23T03:38:53.403Z,100705.50
2023-04-23T03:41:19.920Z,100703.81
2023-04-23T03:43:46.509Z,100701.16
2023-04-23T03:46:13.076Z,100709.19
2023-04-23T03:48:39.670Z,100704.84
2023-04-23T03:51:06.213Z,100690.59
2023-04-23T03:53:32.744Z,100700.47
2023-04-23T03:55:59.273Z,100695.13
2023-04-23T03:58:26.071Z,100688.88
2023-04-23T04:00:52.667Z,100685.38
2023-04-23T04:03:19.311Z,100680.00
2023-04-23T04:05:45.964Z,100681.00
2023-04-23T04:08:12.552Z,100689.06
2023-04-23T04:10:39.141Z,100689.06
2023-04-23T04:13:05.670Z,100691.72
2023-04-23T04:15:33.109Z,100691.72
2023-04-23T04:18:01.183Z,100690.06
2023-04-23T04:20:30.652Z,100691.06
2023-04-23T04:22:57.143Z,100692.75
2023-04-23T04:25:24.186Z,100693.75
2023-04-23T04:27:50.870Z,100691.06
2023-04-23T04:30:17.425Z,100693.75
2023-04-23T04:32:45.660Z,100687.50
2023-04-23T04:35:15.476Z,100695.56
2023-04-23T04:37:44.052Z,100692.03
2023-04-23T04:40:11.653Z,100686.69
2023-04-23T04:42:39.170Z,100692.03
2023-04-23T04:45:06.323Z,100694.72
2023-04-23T04:47:32.927Z,100697.38
2023-04-23T04:50:00.502Z,100687.69
2023-04-23T04:52:27.669Z,100700.25
2023-04-23T04:54:54.209Z,100694.88
2023-04-23T04:57:22.859Z,100701.06
2023-04-23T04:59:50.295Z,100691.34
2023-04-23T05:02:17.096Z,100689.34
2023-04-23T05:04:44.018Z,100692.03
2023-04-23T05:07:11.125Z,100691.72
2023-04-23T05:09:37.682Z,100686.22
2023-04-23T05:12:07.325Z,100688.75
2023-04-23T05:14:34.125Z,100691.44
2023-04-23T05:17:00.908Z,100684.06
2023-04-23T05:19:27.491Z,100686.63
2023-04-23T05:21:54.053Z,100687.28
2023-04-23T05:24:20.721Z,100683.75
2023-04-23T05:26:47.277Z,100693.34
2023-04-23T05:29:17.865Z,100700.38
2023-04-23T05:31:44.490Z,100710.94
2023-04-23T05:34:11.039Z,100716.16
2023-04-23T05:36:37.551Z,100702.59
2023-04-23T05:39:04.102Z,100706.94
2023-04-23T05:41:30.672Z,100702.28
2023-04-23T05:43:57.171Z,100700.28
2023-04-23T05:46:23.759Z,100696.63
2023-04-23T05:48:50.349Z,100695.31
2023-04-23T05:51:17.212Z,100700.56
2023-04-23T05:53:43.798Z,100698.41
2023-04-23T05:56:10.332Z,100697.25
2023-04-23T05:58:38.766Z,100691.56
2023-04-23T06:01:05.413Z,100688.56
2023-04-23T06:03:32.031Z,100692.09
2023-04-23T06:05:58.799Z,100691.78
2023-04-23T06:08:25.486Z,100688.81
2023-04-23T06:10:52.065Z,100684.13
2023-04-23T06:13:18.618Z,100681.28
2023-04-23T06:15:45.264Z,100683.81
2023-04-23T06:18:11.861Z,100675.59
2023-04-23T06:20:38.561Z,100681.66
2023-04-23T06:23:05.111Z,100673.44
2023-04-23T06:25:31.593Z,100677.66
2023-04-23T06:27:58.254Z,100683.69
2023-04-23T06:30:24.821Z,100677.34
2023-04-23T06:32:51.509Z,100669.97
2023-04-23T06:35:18.066Z,100665.44
2023-04-23T06:37:44.566Z,100664.28
2023-04-23T06:40:11.437Z,100665.97
2023-04-23T06:42:37.975Z,100663.16
2023-04-23T06:45:06.348Z,100662.13
2023-04-23T06:47:33.305Z,100667.34
2023-04-23T06:50:00.276Z,100661.81
2023-04-23T06:52:27.306Z,100658.97
2023-04-23T06:54:53.864Z,100659.63
2023-04-23T06:57:21.841Z,100655.16
2023-04-23T06:59:48.415Z,100655.16
2023-04-23T07:02:14.958Z,100653.97
2023-04-23T07:04:41.958Z,100658.34
2023-04-23T07:07:08.741Z,100657.34
2023-04-23T07:09:35.251Z,100664.38
2023-04-23T07:12:02.295Z,100657.03
2023-04-23T07:14:28.992Z,100657.88
2023-04-23T07:16:55.619Z,100648.09
2023-04-23T07:19:22.255Z,100654.16
2023-04-23T07:21:48.786Z,100648.81
2023-04-23T07:24:15.480Z,100654.16
2023-04-23T07:26:42.031Z,100643.44
2023-04-23T07:29:10.592Z,100642.44
2023-04-23T07:31:37.451Z,100634.38
2023-04-23T07:34:04.016Z,100630.03
2023-04-23T07:36:32.004Z,100638.06
2023-04-23T07:38:58.728Z,100634.38
2023-04-23T07:41:25.384Z,100631.69
2023-04-23T07:43:52.053Z,100638.75
2023-04-23T07:46:18.709Z,100631.56
2023-04-23T07:48:45.245Z,100638.75
2023-04-23T07:51:12.422Z,100638.75
2023-04-23T07:53:38.962Z,100630.69
2023-04-23T07:56:05.615Z,100635.06
2023-04-23T07:58:33.240Z,100637.75
2023-04-23T08:00:59.813Z,100632.41
2023-04-23T08:03:28.216Z,100629.72
2023-04-23T08:05:54.864Z,100631.38
2023-04-23T08:08:21.405Z,100627.88
2023-04-23T08:10:48.061Z,100627.69
2023-04-23T08:13:14.587Z,100632.03
2023-04-23T08:15:41.104Z,100628.53
2023-04-23T08:18:07.661Z,100627.56
2023-04-23T08:20:34.799Z,100613.13
2023-04-23T08:23:01.511Z,100609.44
2023-04-23T08:25:28.057Z,100610.25
2023-04-23T08:27:54.595Z,100603.88
2023-04-23T08:30:21.225Z,100614.63
2023-04-23T08:32:51.109Z,100615.50
2023-04-23T08:35:18.014Z,100617.16
2023-04-23T08:37:44.668Z,100610.78
2023-04-23T08:40:11.498Z,100613.28
2023-04-23T08:42:57.262Z,100609.63
2023-04-23T08:45:26.143Z,100618.34
2023-04-23T08:48:00.286Z,100611.81
2023-04-23T08:50:29.270Z,100617.00
2023-04-23T08:52:57.662Z,100604.44
2023-04-23T08:55:25.830Z,100614.19
2023-04-23T08:57:52.492Z,100606.63
2023-04-23T09:00:21.485Z,100610.00
2023-04-23T09:02:50.284Z,100609.50
2023-04-23T09:05:17.316Z,100624.31
2023-04-23T09:07:44.154Z,100611.41
2023-04-23T09:10:12.892Z,100621.66
2023-04-23T09:12:43.823Z,100613.94
2023-04-23T09:15:11.293Z,100609.25
2023-04-23T09:17:41.021Z,100613.28
2023-04-23T09:20:09.696Z,100598.53
2023-04-23T09:22:47.354Z,100599.88
2023-04-23T09:25:17.739Z,100601.91
2023-04-23T09:27:46.385Z,100602.25
2023-04-23T09:30:13.944Z,100605.09
2023-04-23T09:32:43.300Z,100593.50
2023-04-23T09:35:13.514Z,100593.69
2023-04-23T09:37:48.500Z,100593.84
2023-04-23T09:40:20.706Z,100589.47
2023-04-23T09:42:55.770Z,100583.25
2023-04-23T09:45:24.225Z,100587.78
2023-04-23T09:47:55.554Z,100594.19
2023-04-23T09:50:40.892Z,100587.47
2023-04-23T09:53:09.324Z,100591.28
2023-04-23T09:55:42.631Z,100587.94
2023-04-23T09:58:13.692Z,100581.69
2023-04-23T10:00:40.986Z,100587.88
2023-04-23T10:03:09.902Z,100583.84
2023-04-23T10:08:16.051Z,100586.16
2023-04-23T10:10:57.519Z,100580.78
2023-04-23T10:13:29.908Z,100582.44
2023-04-23T10:16:04.486Z,100569.50
2023-04-23T10:18:37.867Z,100574.84
2023-04-23T10:21:05.599Z,100577.84
2023-04-23T10:23:34.253Z,100577.31
2023-04-23T10:26:04.298Z,100570.56
2023-04-23T10:28:33.854Z,100576.44
2023-04-23T10:31:01.088Z,100564.47
2023-04-23T10:33:35.240Z,100565.84
2023-04-23T10:36:07.494Z,100563.78
2023-04-23T10:38:36.670Z,100554.72
2023-04-23T10:41:05.836Z,100548.50
2023-04-23T10:43:32.615Z,100542.09
2023-04-23T10:46:00.835Z,100546.28
2023-04-23T10:48:50.392Z,100544.78
2023-04-23T10:52:02.574Z,100542.09
2023-04-23T10:54:04.657Z,100530.47
2023-04-23T10:56:31.987Z,100535.88
2023-04-23T10:58:58.641Z,100530.66
2023-04-23T11:01:28.015Z,100528.13
2023-04-23T11:03:55.097Z,100520.91
2023-04-23T11:06:49.589Z,100514.88
2023-04-23T11:09:36.554Z,100508.63
2023-04-23T11:12:07.260Z,100509.47
2023-04-23T11:14:43.737Z,100514.00
2023-04-23T11:17:16.036Z,100503.41
2023-04-23T11:20:03.068Z,100504.25
2023-04-23T11:22:58.922Z,100497.53
2023-04-23T11:25:27.843Z,100491.78
2023-04-23T11:27:58.157Z,100490.78
2023-04-23T11:30:28.222Z,100483.72
2023-04-23T11:32:56.393Z,100478.00
2023-04-23T11:35:28.400Z,100478.00
2023-04-23T11:37:55.374Z,100466.84
2023-04-23T11:40:22.650Z,100458.63
2023-04-23T11:42:51.559Z,100453.88
2023-04-23T11:45:28.746Z,100454.75
2023-04-23T11:48:00.754Z,100454.56
2023-04-23T11:50:30.669Z,100444.81
2023-04-23T11:52:57.439Z,100444.81
2023-04-23T11:55:24.084Z,100441.28
2023-04-23T11:57:52.556Z,100439.56
2023-04-23T12:00:19.579Z,100441.63
2023-04-23T12:02:56.505Z,100435.75
2023-04-23T12:05:33.852Z,100441.16
2023-04-23T12:08:34.927Z,100437.44
2023-04-23T12:11:03.275Z,100435.56
2023-04-23T12:13:33.477Z,100423.97
2023-04-23T12:16:02.568Z,100421.94
2023-04-23T12:18:29.074Z,100418.41
2023-04-23T12:20:56.349Z,100412.00
2023-04-23T12:23:28.119Z,100417.22
2023-04-23T12:25:55.154Z,100410.63
2023-04-23T12:28:25.634Z,100406.91
2023-04-23T12:30:52.377Z,100402.38
2023-04-23T12:33:20.687Z,100398.28
2023-04-23T12:35:51.601Z,100395.59
2023-04-23T12:38:26.489Z,100393.56
2023-04-23T12:40:59.188Z,100387.34
2023-04-23T12:43:26.808Z,100385.84
2023-04-23T12:45:54.939Z,100377.97
2023-04-23T12:48:21.528Z,100374.41
2023-04-23T12:50:48.460Z,100379.63
2023-04-23T12:53:15.026Z,100372.56
2023-04-23T12:55:43.235Z,100361.81
2023-04-23T12:58:09.812Z,100368.03
2023-04-23T13:00:36.365Z,100370.06
2023-04-23T13:03:03.197Z,100354.09
2023-04-23T13:05:29.820Z,100353.25
2023-04-23T13:07:56.957Z,100352.59
2023-04-23T13:10:23.501Z,100356.09
2023-04-23T13:12:50.011Z,100350.91
2023-04-23T13:15:17.235Z,100347.56
2023-04-23T13:17:45.744Z,100344.22
2023-04-23T13:20:12.282Z,100339.88
2023-04-23T13:22:38.795Z,100342.56
2023-04-23T13:25:05.850Z,100339.19
2023-04-23T13:27:32.421Z,100344.59
2023-04-23T13:29:59.230Z,100346.41
2023-04-23T13:32:28.008Z,100353.66
2023-04-23T13:34:54.565Z,100350.81
2023-04-23T13:37:21.189Z,100338.34
2023-04-23T13:39:48.367Z,100336.00
2023-04-23T13:42:14.930Z,100330.97
2023-04-23T13:44:41.538Z,100331.16
2023-04-23T13:47:08.355Z,100331.53
2023-04-23T13:49:34.929Z,100327.16
2023-04-23T13:52:06.455Z,100322.63
2023-04-23T13:54:33.355Z,100322.63
2023-04-23T13:57:01.012Z,100314.72
2023-04-23T13:59:27.498Z,100313.22
2023-04-23T14:01:54.040Z,100312.41
2023-04-23T14:04:22.680Z,100301.81
2023-04-23T14:06:49.467Z,100300.13
2023-04-23T14:09:16.070Z,100303.84
2023-04-23T14:11:42.677Z,100294.94
2023-04-23T14:14:09.374Z,100293.44
2023-04-23T14:16:35.964Z,100297.81
2023-04-23T14:19:02.519Z,100287.22
2023-04-23T14:21:29.123Z,100287.06
2023-04-23T14:24:00.932Z,100284.19
2023-04-23T14:26:47.930Z,100273.59
2023-04-23T14:29:23.393Z,100279.97
2023-04-23T14:31:50.434Z,100275.47
2023-04-23T14:34:17.003Z,100281.69
2023-04-23T14:36:44.610Z,100279.00
2023-04-23T14:39:11.888Z,100279.63
2023-04-23T14:41:40.139Z,100275.91
2023-04-23T14:44:06.713Z,100275.06
2023-04-23T14:46:33.311Z,100274.25
2023-04-23T14:49:00.072Z,100277.75
2023-04-23T14:51:27.420Z,100293.91
2023-04-23T14:53:55.894Z,100288.53
2023-04-23T14:56:23.202Z,100296.59
2023-04-23T14:58:49.776Z,100306.53
2023-04-23T15:01:16.486Z,100307.38
2023-04-23T15:03:44.580Z,100317.13
2023-04-23T15:06:11.412Z,100323.34
2023-04-23T15:08:37.903Z,100308.69
2023-04-23T15:11:06.297Z,100298.75
2023-04-23T15:13:35.726Z,100305.81
2023-04-23T15:16:05.681Z,100303.13
2023-04-23T15:18:33.727Z,100302.09
2023-04-23T15:21:03.558Z,100304.78
2023-04-23T15:23:33.243Z,100301.91
2023-04-23T15:25:59.836Z,100313.34
2023-04-23T15:28:26.330Z,100303.41
2023-04-23T15:30:53.083Z,100302.59
2023-04-23T15:33:21.787Z,100300.72
2023-04-23T15:35:51.509Z,100296.38
2023-04-23T15:38:18.827Z,100300.72
2023-04-23T15:40:45.553Z,100293.66
2023-04-23T15:43:15.919Z,100294.50
2023-04-23T15:45:43.212Z,100286.44
2023-04-23T15:48:10.230Z,100279.19
2023-04-23T15:50:39.716Z,100280.84
2023-04-23T15:53:06.512Z,100284.22
2023-04-23T15:55:34.107Z,100270.75
2023-04-23T15:58:04.106Z,100277.13
2023-04-23T16:00:31.360Z,100271.75
2023-04-23T16:02:58.860Z,100271.94
2023-04-23T16:05:25.498Z,100265.94
2023-04-23T16:07:52.174Z,100266.75
2023-04-23T16:10:18.889Z,100263.41
2023-04-23T16:12:45.802Z,100266.91
2023-04-23T16:15:12.902Z,100261.72
2023-04-23T16:17:39.560Z,100252.81
2023-04-23T16:20:06.732Z,100250.28
2023-04-23T16:22:33.426Z,100245.09
2023-04-23T16:25:00.340Z,100237.03
2023-04-23T16:27:26.886Z,100230.63
2023-04-23T16:29:53.389Z,100226.06
2023-04-23T16:32:20.716Z,100225.09
2023-04-23T16:34:47.367Z,100211.63
2023-04-23T16:37:15.808Z,100204.38
2023-04-23T16:39:43.734Z,100204.19
2023-04-23T16:42:10.579Z,100197.13
2023-04-23T16:44:37.255Z,100197.13
2023-04-23T16:47:04.245Z,100191.09
2023-04-23T16:49:30.810Z,100191.09
2023-04-23T16:51:57.367Z,100178.66
2023-04-23T16:54:23.873Z,100163.53
2023-04-23T16:56:50.505Z,100166.22
2023-04-23T16:59:17.044Z,100148.41
2023-04-23T17:01:43.642Z,100144.91
2023-04-23T17:04:10.502Z,100142.38
2023-04-23T17:06:37.098Z,100134.28
2023-04-23T17:09:08.808Z,100123.72
2023-04-23T17:11:35.979Z,100126.59
2023-04-23T17:14:02.561Z,100123.25
2023-04-23T17:16:29.526Z,100110.84
2023-04-23T17:18:56.730Z,100102.94
2023-04-23T17:21:23.480Z,100097.56
2023-04-23T17:23:50.321Z,100088.44
2023-04-23T17:26:16.921Z,100076.03
2023-04-23T17:28:43.538Z,100075.00
2023-04-23T17:31:10.302Z,100066.75
2023-04-23T17:33:36.996Z,100065.09
2023-04-23T17:36:04.251Z,100054.50
2023-04-23T17:38:31.005Z,100052.84
2023-04-23T17:40:58.665Z,100048.50
2023-04-23T17:43:25.241Z,100046.78
2023-04-23T17:45:51.827Z,100050.34
2023-04-23T17:48:19.234Z,100044.09
2023-04-23T17:50:47.012Z,100038.91
2023-04-23T17:53:13.619Z,100028.16
2023-04-23T17:55:40.248Z,100028.16
2023-04-23T17:58:07.488Z,100024.84
2023-04-23T18:00:41.481Z,100016.75
2023-04-23T18:03:09.439Z,100004.97
2023-04-23T18:05:36.334Z,100016.75
2023-04-23T18:08:03.306Z,100002.28
2023-04-23T18:10:29.954Z,99999.75
2023-04-23T18:12:56.791Z,99994.38
2023-04-23T18:15:25.596Z,99990.84
2023-04-23T18:17:54.633Z,99991.69
2023-04-23T18:20:24.850Z,99991.69
2023-04-23T18:22:53.501Z,99987.16
2023-04-23T18:25:20.292Z,99977.41
2023-04-23T18:27:46.971Z,99974.91
2023-04-23T18:30:15.299Z,99971.41
2023-04-23T18:32:47.088Z,99968.72
2023-04-23T18:35:14.254Z,99973.06
2023-04-23T18:37:52.699Z,99976.78
2023-04-23T18:40:19.686Z,99968.72
2023-04-23T18:42:46.288Z,99968.50
2023-04-23T18:45:12.857Z,99971.03
2023-04-23T18:47:49.941Z,99964.78
2023-04-23T18:50:54.970Z,99964.78
2023-04-23T18:53:22.254Z,99950.34
2023-04-23T18:55:48.848Z,99961.94
2023-04-23T18:58:15.409Z,99952.19
2023-04-23T19:00:41.946Z,99952.19
2023-04-23T19:03:19.942Z,99950.34
2023-04-23T19:05:52.839Z,99945.59
2023-04-23T19:08:19.367Z,99948.94
2023-04-23T19:10:45.910Z,99939.63
2023-04-23T19:13:12.492Z,99943.59
2023-04-23T19:15:39.166Z,99945.75
2023-04-23T19:18:06.154Z,99942.66
2023-04-23T19:20:32.804Z,99940.41
2023-04-23T19:22:59.311Z,99935.50
2023-04-23T19:25:26.002Z,99928.25
2023-04-23T19:27:52.498Z,99925.81
2023-04-23T19:30:19.043Z,99927.50
2023-04-23T19:32:45.600Z,99931.66
2023-04-23T19:35:12.141Z,99915.34
2023-04-23T19:37:38.680Z,99917.63
2023-04-23T19:40:05.733Z,99911.25
2023-04-23T19:42:32.635Z,99908.16
2023-04-23T19:44:59.195Z,99910.66
2023-04-23T19:47:25.834Z,99907.75
2023-04-23T19:49:52.532Z,99898.69
2023-04-23T19:52:23.271Z,99899.50
2023-04-23T19:54:49.869Z,99889.38
2023-04-23T19:57:18.431Z,99882.78
2023-04-23T19:59:46.152Z,99877.19
2023-04-23T20:02:13.023Z,99879.69
2023-04-23T20:04:39.745Z,99886.75
2023-04-23T20:07:06.936Z,99880.09
2023-04-23T20:09:33.854Z,99871.84
2023-04-23T20:12:01.414Z,99875.38
2023-04-23T20:14:29.002Z,99874.56
2023-04-23T20:16:56.214Z,99871.84
2023-04-23T20:19:25.891Z,99864.81
2023-04-23T20:21:53.526Z,99856.09
2023-04-23T20:24:21.444Z,99866.03
2023-04-23T20:26:48.298Z,99867.06
2023-04-23T20:29:14.848Z,99863.91
2023-04-23T20:31:41.855Z,99863.28
2023-04-23T20:34:08.536Z,99865.50
2023-04-23T20:36:35.697Z,99865.09
2023-04-23T20:39:05.645Z,99865.47
2023-04-23T20:41:36.577Z,99869.59
2023-04-23T20:44:04.968Z,99871.78
2023-04-23T20:46:32.371Z,99867.00
2023-04-23T20:49:00.900Z,99870.06
2023-04-23T20:51:33.067Z,99862.38
2023-04-23T20:53:59.817Z,99864.44
2023-04-23T20:56:29.108Z,99869.38
2023-04-23T20:58:57.472Z,99864.38
2023-04-23T21:01:25.274Z,99860.19
2023-04-23T21:03:53.585Z,99862.44
2023-04-23T21:06:21.644Z,99860.13
2023-04-23T21:08:48.474Z,99860.50
2023-04-23T21:11:17.513Z,99848.47
2023-04-23T21:13:44.619Z,99849.69
2023-04-23T21:16:14.025Z,99851.91
2023-04-23T21:18:43.648Z,99849.63
2023-04-23T21:21:10.529Z,99849.81
2023-04-23T21:23:37.045Z,99845.00
2023-04-23T21:26:03.612Z,99840.84
2023-04-23T21:28:30.952Z,99848.25
2023-04-23T21:31:05.736Z,99839.75
2023-04-23T21:33:32.355Z,99845.31
2023-04-23T21:35:58.850Z,99841.97
2023-04-23T21:38:25.404Z,99840.50
2023-04-23T21:40:51.953Z,99840.69
2023-04-23T21:43:18.505Z,99849.13
2023-04-23T21:45:45.754Z,99843.13
2023-04-23T21:48:13.177Z,99854.06
2023-04-23T21:50:39.859Z,99845.34
2023-04-23T21:53:06.937Z,99843.88
2023-04-23T21:55:33.515Z,99841.38
2023-04-23T21:58:13.967Z,99846.13
2023-04-23T22:00:44.594Z,99840.75
2023-04-23T22:03:12.130Z,99841.94
2023-04-23T22:05:40.802Z,99835.03
2023-04-23T22:08:07.532Z,99829.03
2023-04-23T22:10:34.367Z,99832.94
2023-04-23T22:13:01.302Z,99842.03
2023-04-23T22:15:29.075Z,99832.47
2023-04-23T22:17:59.149Z,99836.19
2023-04-23T22:20:25.723Z,99832.00
2023-04-23T22:22:52.392Z,99826.00
2023-04-23T22:25:19.454Z,99825.34
2023-04-23T22:27:45.965Z,99822.03
2023-04-23T22:30:12.734Z,99816.81
2023-04-23T22:32:40.019Z,99818.69
2023-04-23T22:35:07.980Z,99818.88
2023-04-23T22:37:35.377Z,99827.13
2023-04-23T22:40:02.423Z,99814.91
2023-04-23T22:42:28.955Z,99822.13
2023-04-23T22:44:55.517Z,99816.91
2023-04-23T22:47:22.355Z,99809.06
2023-04-23T22:49:49.477Z,99817.31
2023-04-23T22:52:16.779Z,99819.34
2023-04-23T22:54:43.833Z,99824.91
2023-04-23T22:57:11.971Z,99818.06
2023-04-23T22:59:41.908Z,99830.66
2023-04-23T23:02:08.876Z,99825.66
2023-04-23T23:04:38.460Z,99823.16
2023-04-23T23:07:05.839Z,99835.94
2023-04-23T23:09:32.703Z,99833.63
2023-04-23T23:12:03.595Z,99833.16
2023-04-23T23:14:30.751Z,99843.25
2023-04-23T23:16:58.029Z,99838.91
2023-04-23T23:19:26.875Z,99840.09
2023-04-23T23:21:53.651Z,99841.31
2023-04-23T23:24:20.201Z,99830.94
2023-04-23T23:26:46.764Z,99839.19
2023-04-23T23:29:13.269Z,99829.63
2023-04-23T23:31:40.089Z,99837.03
2023-04-23T23:34:06.693Z,99853.53
2023-04-23T23:36:34.158Z,99859.06
2023-04-23T23:39:00.981Z,99877.03
2023-04-23T23:41:27.500Z,99882.59
2023-04-23T23:43:54.086Z,99898.69
2023-04-23T23:46:20.921Z,99905.06
2023-04-23T23:48:47.588Z,99910.63
2023-04-23T23:51:14.391Z,99916.81
2023-04-23T23:53:40.967Z,99924.25
2023-04-23T23:56:07.514Z,99912.00
2023-04-23T23:58:34.026Z,99925.44
